Date,TemperatureHighF,TemperatureAvgF,TemperatureLowF,DewpointHighF,DewpointAvgF,DewpointLowF,HumidityHigh,HumidityAvg,HumidityLow,PressureMaxIn,PressureMinIn,WindSpeedMaxMPH,WindSpeedAvgMPH,GustSpeedMaxMPH,PrecipitationSumIn
2013-1-1,29,24,21,17,12,9,61,59,57,29.29,29.20,7,2,7,0.00
2013-1-2,21,21,21,9,9,9,59,59,59,29.29,29.29,1,1,0,0.00
2013-1-3,29,24,21,22,14,9,73,64,59,29.35,29.29,9,2,9,0.00
2013-1-4,35,29,24,22,18,15,74,63,52,29.35,29.18,10,4,10,0.00
2013-1-5,36,27,15,28,20,11,88,75,60,29.47,29.24,8,2,8,0.00
2013-1-6,38,34,32,34,30,26,92,85,72,29.47,29.12,7,3,7,0.04
2013-1-7,40,33,29,28,23,20,83,68,52,29.56,29.35,15,4,15,0.00
2013-1-8,38,30,23,25,22,18,88,74,57,29.44,29.35,8,2,8,0.00
2013-1-9,25,23,21,23,20,18,90,88,86,29.38,29.29,1,0,1,0.00
2013-1-10,39,36,22,34,30,9,95,79,57,29.68,29.31,12,4,12,0.04
2013-1-11,53,43,35,53,42,33,98,97,89,29.44,29.00,9,3,9,0.72
2013-1-12,60,49,42,56,47,41,98,93,73,29.18,29.06,8,2,8,0.00
2013-1-13,50,42,32,49,40,31,98,93,76,29.20,29.03,9,4,9,0.13
2013-1-14,32,26,17,31,17,12,95,71,54,29.62,29.20,8,2,8,0.00
2013-1-15,34,23,14,19,14,10,85,70,49,29.62,29.35,6,1,6,0.00
2013-1-16,42,30,19,25,18,15,86,63,39,29.35,29.00,12,2,12,0.00
2013-1-17,39,30,17,26,17,1,78,59,46,29.50,29.15,10,3,10,0.00
2013-1-18,36,24,11,19,9,-3,71,52,45,29.62,29.18,17,4,17,0.00
2013-1-19,47,41,33,33,26,18,64,55,49,29.18,28.76,12,5,12,0.00
2013-1-20,45,24,16,32,7,0,69,47,41,29.35,28.73,17,4,17,0.00
2013-1-21,24,14,5,8,-1,-10,68,51,46,29.32,29.12,9,2,9,0.00
2013-1-22,14,5,-2,-3,-11,-17,48,46,44,29.44,29.26,7,2,7,0.00
2013-1-23,20,10,0,8,-4,-17,74,52,44,29.44,29.26,8,1,9,0.00
2013-1-24,24,14,9,7,1,-7,72,57,44,29.74,29.29,14,3,14,0.00
2013-1-25,24,17,11,15,6,-6,80,62,46,29.71,29.20,8,2,8,0.00
2013-1-26,33,21,11,17,12,2,82,68,50,29.62,29.24,8,1,8,0.00
2013-1-27,32,20,7,28,11,-1,97,68,49,29.68,29.38,12,2,12,0.00
2013-1-28,42,36,29,42,35,28,98,98,96,29.38,29.06,9,2,9,0.31
2013-1-29,55,40,33,54,39,32,98,98,98,29.24,28.76,9,2,9,0.53
2013-1-30,54,48,34,54,48,32,98,97,89,28.76,28.35,12,4,12,0.84
2013-1-31,34,26,21,32,15,8,90,63,49,28.94,28.41,10,4,10,0.04
2013-2-17,23,16,10,4,-1,-4,51,48,43,29.41,29.35,8,1,8,0.00
2013-2-18,44,26,10,32,13,-4,75,59,50,29.41,28.85,15,3,15,0.00
2013-2-19,45,33,20,41,26,9,98,76,57,29.06,28.64,14,5,14,0.16
2013-2-20,25,22,17,11,8,4,65,56,51,29.41,29.00,10,3,10,0.16
2013-2-21,26,21,18,17,10,6,77,62,52,29.59,29.41,11,4,11,0.00
2013-2-22,34,28,22,34,25,15,98,89,74,29.50,29.09,14,4,14,0.00
2013-2-23,40,32,27,34,24,18,98,73,53,29.12,29.06,9,2,9,0.04
2013-2-24,40,30,21,26,20,16,84,68,55,29.35,29.09,8,1,8,0.00
2013-2-25,47,29,15,26,18,11,85,66,42,29.41,29.32,7,2,7,0.00
2013-2-26,39,32,25,33,25,18,98,76,53,29.35,28.76,13,4,13,0.04
2013-2-27,38,35,33,37,35,33,98,98,98,28.79,28.70,7,2,7,0.35
2013-2-28,38,34,30,36,31,24,98,90,75,29.15,28.76,17,6,17,0.16
2013-3-1,30,27,26,25,19,16,82,70,60,29.29,29.15,21,8,21,0.00
2013-3-2,32,26,24,20,17,13,74,68,58,29.26,29.24,14,4,14,0.00
2013-3-3,33,24,16,16,12,8,76,62,48,29.24,29.18,10,3,10,0.00
2013-3-4,36,24,12,16,11,6,81,60,41,29.32,29.24,6,1,6,0.00
2013-3-5,38,29,16,22,18,8,77,65,51,29.32,29.06,14,4,14,0.00
2013-3-6,46,35,28,29,26,21,84,68,52,29.41,29.06,13,4,13,0.00
2013-3-7,37,33,26,31,25,16,86,72,58,29.59,29.41,11,2,11,0.00
2013-3-8,45,33,22,28,21,15,86,64,49,29.68,29.59,8,2,8,0.00
2013-3-9,46,34,24,33,26,21,92,75,52,29.65,29.29,12,3,12,0.00
2013-3-10,66,49,33,42,36,29,86,64,39,29.29,29.03,13,2,13,0.00
2013-3-11,54,48,38,49,44,33,98,85,63,29.06,28.70,20,4,20,0.28
2013-3-12,40,36,30,34,28,20,84,71,57,29.12,28.88,9,3,9,0.00
2013-3-13,35,30,27,27,18,11,88,60,44,29.35,29.06,13,3,13,0.00
2013-3-14,44,31,20,21,14,9,64,50,39,29.44,29.29,11,2,11,0.00
2013-3-15,42,36,27,32,25,14,87,67,50,29.29,29.09,7,2,7,0.00
2013-3-16,35,30,24,27,24,19,92,80,61,29.24,29.00,10,3,10,0.00
2013-3-17,36,27,20,22,13,8,76,57,43,29.47,29.24,15,4,15,0.00
2013-3-18,35,30,20,34,25,9,98,82,61,29.41,28.76,15,5,15,0.04
2013-3-19,35,28,25,34,20,13,98,70,53,29.12,28.82,13,4,13,0.12
2013-3-20,37,26,18,18,12,6,69,55,42,29.12,29.09,8,2,8,0.00
2013-3-21,36,26,16,23,15,5,75,63,51,29.09,29.03,14,2,14,0.00
2013-3-22,40,31,26,22,17,14,64,56,47,29.24,29.09,8,2,8,0.00
2013-3-23,44,33,26,25,20,17,74,58,45,29.32,29.20,10,2,10,0.00
2013-3-24,40,30,22,27,21,16,83,68,45,29.29,28.88,13,3,13,0.00
2013-3-25,42,36,32,26,23,21,71,61,50,29.09,28.82,21,7,21,0.00
2013-3-26,53,39,34,30,26,24,74,60,41,29.29,29.09,10,3,10,0.00
2013-3-27,55,40,30,31,24,20,73,54,38,29.38,29.29,11,3,11,0.00
2013-3-28,55,43,33,31,24,18,63,49,37,29.47,29.38,10,2,10,0.00
2013-3-29,59,42,31,28,20,16,58,43,26,29.47,29.41,10,2,10,0.00
2013-3-30,62,45,26,31,18,-11,68,40,6,29.44,29.18,10,2,10,0.00
2013-3-31,62,46,34,42,30,18,82,56,37,29.18,28.85,8,2,8,0.04
2013-4-1,44,34,26,34,16,9,81,48,33,29.29,28.88,14,4,14,0.00
2013-4-2,46,32,22,19,11,6,61,43,28,29.44,29.29,8,2,8,0.00
2013-4-3,45,32,23,17,10,5,54,41,26,29.62,29.44,14,2,14,0.00
2013-4-4,59,41,23,22,7,-12,60,33,6,29.56,29.18,10,2,10,0.00
2013-4-5,50,40,27,29,21,12,78,47,30,29.44,29.15,16,4,16,0.00
2013-4-6,48,37,25,27,19,12,60,50,38,29.47,29.03,16,4,16,0.00
2013-4-7,59,50,36,44,33,26,72,53,41,29.24,28.85,13,3,13,0.00
2013-4-8,60,42,29,55,38,24,96,83,56,29.26,28.94,15,3,15,0.08
2013-4-9,50,44,40,47,42,37,98,93,74,29.32,29.12,9,3,9,0.94
2013-4-10,44,41,38,43,40,38,98,98,97,29.26,29.06,15,5,15,0.29
2013-4-11,40,38,36,39,37,35,98,97,93,29.20,28.91,8,4,8,0.24
2013-4-12,45,39,35,44,37,35,98,94,84,28.97,28.73,8,3,8,0.55
2013-4-13,47,41,38,39,29,24,91,64,50,29.20,28.97,10,3,10,0.00
2013-4-14,48,40,30,35,28,24,82,62,48,29.32,29.20,12,3,12,0.00
2013-4-15,72,56,33,54,43,29,90,65,44,29.20,29.12,20,4,20,0.00
2013-4-16,68,57,45,54,43,29,91,63,37,29.47,29.09,10,2,10,0.00
2013-4-17,62,48,39,45,35,27,98,63,39,29.56,29.29,11,4,11,0.48
2013-4-18,78,58,44,65,55,44,98,90,55,29.29,28.82,18,4,18,0.59
2013-4-19,60,47,38,59,40,26,98,78,51,28.94,28.56,20,4,20,0.35
2013-4-20,46,36,28,30,20,15,77,53,40,29.65,28.94,12,3,12,0.00
2013-4-21,51,37,23,27,22,18,82,55,35,29.85,29.65,12,4,12,0.00
2013-4-22,62,47,30,36,29,21,85,53,25,29.71,29.44,12,3,12,0.00
2013-4-23,72,56,36,54,39,28,94,58,34,29.44,29.09,14,3,14,0.12
2013-4-24,56,40,35,55,40,35,98,97,92,29.35,29.00,13,3,13,0.56
2013-4-25,52,41,30,44,33,23,98,75,43,29.56,29.32,10,2,10,0.04
2013-4-26,62,46,29,36,30,25,88,58,34,29.71,29.56,11,2,11,0.00
2013-4-27,72,54,34,42,34,26,82,49,32,29.62,29.41,13,3,13,0.00
2013-4-28,59,51,44,54,43,28,98,76,52,29.41,29.12,8,3,8,0.20
2013-4-29,71,59,53,63,54,50,98,85,51,29.20,29.09,8,2,8,0.00
2013-4-30,73,62,49,62,54,48,97,76,49,29.38,29.18,17,3,17,0.17
2013-5-1,80,65,48,57,52,46,96,68,42,29.53,29.35,13,3,13,0.00
2013-5-2,80,65,50,54,47,42,90,56,37,29.56,29.44,15,4,15,0.00
2013-5-3,75,64,52,51,42,33,65,45,22,29.44,29.38,18,4,18,0.00
2013-5-4,70,62,52,47,40,31,73,46,32,29.44,29.38,14,4,14,0.00
2013-5-5,74,61,45,43,37,31,72,44,23,29.41,29.32,13,4,13,0.00
2013-5-6,76,61,43,49,40,31,75,47,36,29.35,29.26,13,3,13,0.00
2013-5-7,78,64,47,53,44,32,60,48,36,29.35,29.29,10,2,10,0.00
2013-5-8,83,65,50,55,45,35,70,49,34,29.32,29.20,9,2,9,0.00
2013-5-9,88,66,50,53,45,41,86,52,24,29.24,29.18,10,2,10,0.00
2013-5-10,69,56,42,64,50,38,98,81,48,29.18,29.03,10,3,10,0.30
2013-5-11,66,50,38,48,41,30,95,73,45,29.15,29.00,10,3,10,0.00
2013-5-12,56,43,35,33,28,18,77,56,40,29.35,29.09,10,3,10,0.00
2013-5-13,57,44,29,31,24,18,68,46,34,29.44,29.32,9,2,9,0.00
2013-5-14,64,52,40,44,37,24,72,56,43,29.38,29.03,13,4,13,0.00
2013-5-15,86,68,51,62,49,40,93,56,30,29.06,28.85,9,2,9,0.00
2013-5-16,85,67,52,50,41,33,59,40,28,29.32,29.06,10,2,10,0.00
2013-5-17,71,58,45,46,40,34,74,52,36,29.44,29.32,8,3,8,0.00
2013-5-18,80,66,54,51,44,39,65,47,30,29.44,29.32,13,3,13,0.00
2013-5-19,88,71,52,63,55,42,75,59,41,29.32,29.18,10,2,10,0.00
2013-5-20,93,76,59,71,62,54,93,66,40,29.24,29.06,15,2,15,0.00
2013-5-21,90,75,64,72,62,55,91,66,38,29.09,29.00,9,2,9,0.04
2013-5-22,83,72,64,67,62,55,94,75,44,29.03,28.91,13,3,13,0.04
2013-5-23,66,52,41,61,49,37,97,90,76,29.38,28.97,18,5,18,0.08
2013-5-24,56,45,38,37,32,27,84,62,44,29.62,29.38,19,5,19,0.00
2013-5-25,68,51,33,41,34,28,90,56,34,29.65,29.56,13,2,13,0.00
2013-5-26,72,54,36,41,33,27,78,50,30,29.59,29.53,10,2,10,0.00
2013-5-27,66,52,36,51,38,28,98,62,32,29.53,29.32,11,3,11,0.21
2013-5-28,69,60,51,69,59,50,98,98,97,29.32,29.09,7,2,7,1.42
2013-5-29,87,73,63,72,66,58,98,80,44,29.29,29.06,8,2,8,0.12
2013-5-30,92,70,61,73,66,59,98,87,44,29.35,29.29,11,2,11,0.38
2013-5-31,85,72,63,75,68,63,98,88,58,29.29,29.18,13,2,13,0.38
2013-6-1,85,72,65,68,64,60,97,78,49,29.18,29.00,9,3,9,0.08
2013-6-2,74,65,55,65,56,42,91,74,55,29.26,28.97,12,3,12,0.00
2013-6-3,71,57,44,45,40,36,83,55,35,29.35,29.26,10,2,10,0.00
2013-6-4,73,58,45,49,41,30,86,55,36,29.47,29.35,8,2,8,0.00
2013-6-5,73,61,46,48,42,30,67,50,36,29.47,29.29,10,2,10,0.00
2013-6-6,67,60,55,53,46,40,79,61,50,29.32,29.18,7,3,7,0.00
2013-6-7,62,57,52,53,51,47,90,81,71,29.20,29.15,9,3,9,0.00
2013-6-8,73,63,56,56,52,49,86,70,46,29.35,29.20,5,1,5,0.00
2013-6-9,76,65,52,56,51,45,94,64,44,29.41,29.26,10,3,10,0.00
2013-6-10,70,65,59,69,62,46,98,93,46,29.26,29.03,8,1,8,0.94
2013-6-11,84,71,63,68,64,61,98,83,52,29.18,29.06,9,2,9,0.00
2013-6-12,77,68,60,69,65,59,98,89,72,29.24,28.97,8,1,8,0.00
2013-6-13,76,68,63,65,56,50,98,69,43,29.20,28.88,12,3,12,0.59
2013-6-14,75,63,59,56,53,50,83,71,48,29.35,29.20,10,4,10,0.00
2013-6-15,82,73,65,69,60,53,84,65,43,29.35,29.20,5,1,5,0.00
2013-6-16,84,72,65,67,61,52,96,72,41,29.20,29.06,8,2,8,0.29
2013-6-17,90,69,59,66,57,52,98,69,34,29.24,29.15,20,2,20,0.12
2013-6-18,72,62,53,58,50,38,98,69,42,29.38,29.20,10,4,10,0.04
2013-6-19,77,62,48,48,44,38,86,54,34,29.47,29.35,7,2,7,0.00
2013-6-20,86,64,50,57,51,46,90,65,35,29.50,29.44,8,1,8,0.00
2013-6-21,85,70,55,68,58,50,89,66,46,29.50,29.35,7,1,7,0.00
2013-6-22,94,77,66,73,66,58,89,70,44,29.41,29.29,7,2,7,0.00
2013-6-23,94,80,69,74,67,63,93,67,40,29.35,29.26,9,2,9,0.00
2013-6-24,92,79,68,72,67,63,97,67,47,29.35,29.20,9,2,9,0.46
2013-6-25,83,72,67,78,69,66,97,91,67,29.26,29.12,6,2,6,0.37
2013-6-26,87,76,66,72,68,64,96,78,51,29.15,29.09,8,2,8,0.12
2013-6-27,87,75,67,73,68,62,98,82,47,29.29,28.94,12,2,12,1.21
2013-6-28,80,69,63,72,67,60,98,93,64,28.94,28.82,10,1,10,0.67
2013-6-29,78,67,60,66,61,55,98,82,56,29.06,28.85,9,2,9,0.00
2013-6-30,79,68,58,62,56,42,94,68,45,29.26,29.03,9,2,9,0.00
2013-7-1,70,65,61,59,53,43,85,66,49,29.35,29.24,9,4,9,0.00
2013-7-2,77,68,62,63,58,53,83,72,59,29.38,29.32,7,3,7,0.00
2013-7-3,87,72,59,72,63,56,93,75,48,29.41,29.35,7,1,7,0.00
2013-7-4,87,77,69,71,65,60,94,70,45,29.44,29.38,8,2,8,0.00
2013-7-5,87,76,70,69,66,58,94,72,42,29.41,29.35,8,2,8,0.00
2013-7-6,87,74,66,72,68,64,95,81,55,29.41,29.29,9,2,9,0.00
2013-7-7,83,76,70,72,69,67,96,82,61,29.32,29.26,9,1,9,0.00
2013-7-8,86,74,69,74,70,66,98,85,66,29.32,29.26,9,1,9,0.62
2013-7-9,91,76,70,81,72,68,98,87,52,29.29,29.18,7,1,7,0.04
2013-7-10,93,79,67,80,70,56,97,77,48,29.24,29.06,10,3,10,0.29
2013-7-11,79,69,60,59,56,52,86,64,42,29.38,29.24,11,3,11,0.00
2013-7-12,83,68,56,64,58,53,94,72,44,29.44,29.38,6,2,6,0.00
2013-7-13,86,74,61,66,60,54,94,63,39,29.53,29.44,8,2,8,0.00
2013-7-14,91,80,55,71,67,53,93,66,43,29.56,29.53,7,2,7,0.00
2013-7-15,91,78,69,76,72,67,97,82,57,29.59,29.53,10,2,10,1.71
2013-7-16,95,81,73,87,77,72,98,88,60,29.62,29.53,6,1,6,0.00
2013-7-17,96,84,72,79,75,71,95,75,49,29.56,29.44,7,1,7,0.00
2013-7-18,98,84,74,78,74,71,91,74,44,29.44,29.26,13,2,13,0.00
2013-7-19,97,85,77,76,71,60,86,67,39,29.26,29.00,13,4,13,0.00
2013-7-20,88,76,68,74,66,57,98,75,40,29.24,29.00,10,2,10,1.42
2013-7-21,84,71,62,63,58,54,83,66,46,29.32,29.24,6,1,6,0.00
2013-7-22,82,73,65,71,64,58,88,74,53,29.29,29.06,8,2,8,0.00
2013-7-23,82,70,61,75,66,50,97,87,62,29.18,28.97,14,3,14,0.46
2013-7-24,74,63,54,52,49,46,83,61,44,29.35,29.18,10,3,10,0.00
2013-7-25,81,65,50,58,52,48,93,65,39,29.41,29.35,7,2,7,0.00
2013-7-26,81,69,56,60,56,53,93,67,43,29.41,29.20,8,2,8,0.00
2013-7-27,75,69,65,70,64,59,94,85,69,29.20,29.06,10,2,10,0.08
2013-7-28,71,71,71,64,64,64,78,78,78,29.06,29.06,2,2,2,0.00
2013-7-29,71,69,58,64,60,54,91,74,58,29.47,29.06,6,2,6,0.00
2013-7-30,83,66,53,61,56,52,97,73,41,29.53,29.44,7,1,7,0.00
2013-7-31,72,67,61,68,64,57,98,92,83,29.44,29.18,5,1,5,0.52
2013-8-1,80,68,64,70,62,54,98,81,45,29.20,29.18,7,2,7,0.00
2013-8-2,81,67,58,64,58,54,89,74,45,29.24,29.15,13,2,13,0.00
2013-8-3,81,68,58,64,57,50,96,71,41,29.35,29.18,9,2,9,0.00
2013-8-4,74,61,56,57,52,46,90,73,46,29.44,29.35,10,2,10,0.00
2013-8-5,73,62,52,58,52,49,93,73,47,29.44,29.26,10,1,10,0.00
2013-8-6,79,68,61,67,62,56,93,82,58,29.29,29.20,10,1,10,0.00
2013-8-7,86,73,63,71,66,61,97,80,54,29.20,29.12,16,2,16,0.13
2013-8-8,77,69,63,69,64,56,98,85,61,29.32,29.20,10,3,10,0.00
2013-8-9,83,70,59,60,57,54,94,66,40,29.32,29.24,7,1,7,0.00
2013-8-10,79,68,59,60,57,52,94,70,44,29.44,29.32,10,2,10,0.00
2013-8-11,83,68,58,65,58,53,88,72,43,29.44,29.32,8,1,8,0.00
2013-8-12,72,67,62,70,64,58,98,93,81,29.35,29.15,6,1,6,0.24
2013-8-13,69,62,55,64,53,44,98,75,47,29.32,29.12,12,3,12,0.00
2013-8-14,73,60,52,53,49,45,85,69,44,29.44,29.32,13,2,13,0.00
2013-8-15,77,62,51,52,49,47,88,65,39,29.47,29.38,7,1,7,0.00
2013-8-16,82,66,53,59,54,51,94,69,41,29.50,29.41,7,1,7,0.00
2013-8-17,82,66,52,62,54,50,94,69,40,29.56,29.50,8,1,8,0.00
2013-8-18,60,59,58,54,54,53,85,82,79,29.50,29.50,0,0,0,0.00
2013-8-19,87,78,58,61,55,43,85,48,33,29.50,29.35,7,2,7,0.00
2013-8-20,89,73,60,66,60,57,91,67,40,29.44,29.35,7,1,7,0.00
2013-8-21,91,76,64,69,65,62,95,72,42,29.44,29.29,9,2,9,0.00
2013-8-22,86,76,68,68,66,62,89,72,49,29.35,29.26,8,2,8,0.00
2013-8-23,84,70,59,62,55,51,89,62,36,29.50,29.35,7,2,7,0.00
2013-8-24,81,67,54,65,56,52,94,69,40,29.62,29.50,9,2,9,0.00
2013-8-25,91,73,56,65,59,54,95,66,32,29.59,29.44,8,2,8,0.00
2013-8-26,90,79,72,72,66,61,78,63,48,29.44,29.26,7,3,7,0.00
2013-8-27,82,76,70,79,72,68,97,90,76,29.29,29.15,10,1,10,0.38
2013-8-28,84,76,69,75,72,67,97,86,61,29.32,29.09,8,2,8,0.00
2013-8-29,92,76,67,72,68,65,94,79,46,29.38,29.29,6,1,6,0.00
2013-8-30,90,76,66,71,68,64,97,78,45,29.32,29.06,15,2,15,1.33
2013-8-31,78,73,64,73,69,63,98,88,67,29.15,29.06,8,2,8,0.00
2013-9-1,79,69,63,72,66,61,97,91,76,29.18,29.03,6,1,6,0.00
2013-9-2,78,69,62,69,61,51,97,78,52,29.20,29.00,10,3,10,0.00
2013-9-3,75,64,58,56,53,51,83,68,46,29.32,29.20,10,2,10,0.00
2013-9-4,83,68,53,63,57,51,95,71,42,29.38,29.29,8,2,8,0.00
2013-9-5,72,62,50,62,50,44,93,67,43,29.56,29.38,13,3,13,0.00
2013-9-6,77,59,45,53,44,37,93,63,26,29.56,29.38,6,1,6,0.00
2013-9-7,81,67,53,69,59,43,91,76,58,29.38,29.20,6,1,6,0.00
2013-9-8,72,66,54,68,57,45,91,75,43,29.41,29.20,8,3,8,0.00
2013-9-9,75,64,51,68,60,48,95,86,74,29.38,29.20,7,1,7,0.00
2013-9-10,97,80,68,74,68,61,95,70,36,29.32,29.18,10,2,10,0.00
2013-9-11,94,77,68,73,68,65,98,77,46,29.32,29.20,11,2,11,0.71
2013-9-12,79,68,55,68,62,53,98,86,46,29.26,29.15,12,2,12,0.21
2013-9-13,61,54,43,55,46,36,97,76,49,29.44,29.24,15,4,15,0.00
2013-9-14,71,53,41,48,42,38,94,71,36,29.47,29.38,6,1,6,0.00
2013-9-15,66,55,49,54,50,44,95,84,61,29.41,29.35,5,0,5,0.00
2013-9-16,64,56,44,55,47,38,97,74,47,29.68,29.41,11,3,11,0.00
2013-9-17,68,51,40,51,42,37,94,72,40,29.71,29.53,13,2,13,0.00
2013-9-18,78,58,44,60,48,41,95,75,41,29.53,29.32,8,1,8,0.00
2013-9-19,82,67,54,69,61,52,95,84,63,29.35,29.24,8,1,8,0.00
2013-9-20,85,71,68,77,70,66,98,94,71,29.24,29.03,9,2,9,0.70
2013-9-21,68,63,54,67,58,44,98,85,63,29.18,28.97,13,3,13,0.16
2013-9-22,61,52,44,45,42,39,89,70,50,29.38,29.18,10,3,10,0.00
2013-9-23,62,51,44,47,42,39,95,74,49,29.47,29.38,7,1,7,0.00
2013-9-24,70,52,41,52,44,39,96,78,43,29.44,29.29,7,1,7,0.00
2013-9-25,72,55,43,52,46,41,98,74,44,29.32,29.26,6,1,6,0.00
2013-9-26,77,59,47,55,48,43,96,71,36,29.44,29.29,6,1,6,0.00
2013-9-27,78,60,48,56,51,46,95,76,44,29.53,29.44,7,1,7,0.00
2013-9-28,76,63,53,63,55,49,97,78,43,29.50,29.32,12,2,12,0.00
2013-9-29,64,59,54,62,57,53,98,94,85,29.32,29.26,6,1,6,0.08
2013-9-30,74,62,53,59,55,49,98,81,49,29.32,29.24,7,1,7,0.00
2013-10-1,71,60,51,64,57,50,98,90,70,29.32,29.24,8,2,8,0.00
2013-10-2,81,65,54,61,53,44,97,69,32,29.38,29.24,6,1,6,0.00
2013-10-3,81,65,52,68,58,46,92,77,59,29.38,29.24,8,1,8,0.00
2013-10-4,84,71,64,69,66,62,95,83,58,29.35,29.26,6,2,6,0.00
2013-10-5,74,68,64,71,65,62,98,92,77,29.35,29.20,8,2,8,0.28
2013-10-6,71,66,56,70,66,55,98,98,89,29.20,28.94,9,3,9,0.21
2013-10-7,60,53,46,55,50,45,98,90,66,29.38,28.97,11,2,11,0.04
2013-10-8,70,54,42,52,45,41,98,77,40,29.56,29.38,7,1,7,0.00
2013-10-9,71,54,42,56,44,40,97,74,38,29.62,29.53,10,2,10,0.00
2013-10-10,72,54,42,55,43,38,96,71,34,29.53,29.44,9,1,9,0.00
2013-10-11,73,54,41,50,43,38,95,69,33,29.44,29.38,6,1,6,0.00
2013-10-12,76,61,46,61,52,44,93,77,42,29.41,29.35,10,2,10,0.00
2013-10-13,71,60,47,59,46,36,96,63,34,29.62,29.38,8,2,8,0.00
2013-10-14,66,53,43,46,42,38,90,68,43,29.68,29.56,8,2,8,0.00
2013-10-15,65,53,40,61,49,36,96,86,72,29.56,29.12,8,2,8,0.04
2013-10-16,66,59,54,61,52,41,98,79,48,29.18,29.09,10,3,10,0.08
2013-10-17,56,52,47,52,49,47,98,89,79,29.18,29.03,6,2,6,0.20
2013-10-18,67,52,41,59,43,38,98,75,43,29.18,29.09,8,2,8,0.00
2013-10-19,51,45,40,50,42,39,98,91,73,29.18,29.00,8,2,8,0.12
2013-10-20,62,48,38,46,41,37,97,77,45,29.18,29.09,10,2,10,0.04
2013-10-21,56,52,42,49,43,34,93,73,57,29.15,29.09,13,4,13,0.04
2013-10-22,53,42,33,35,29,26,78,61,42,29.18,29.09,10,2,10,0.00
2013-10-23,52,40,32,33,28,22,87,63,41,29.18,29.09,9,2,9,0.00
2013-10-24,52,39,31,32,27,26,87,65,41,29.41,29.18,7,2,7,0.00
2013-10-25,50,39,32,35,28,26,89,66,45,29.56,29.38,10,2,10,0.00
2013-10-26,53,43,36,41,30,25,98,64,46,29.38,29.03,15,4,15,0.04
2013-10-27,54,41,34,38,33,29,98,77,47,29.32,29.24,8,1,8,0.00
2013-10-28,50,41,32,38,32,27,91,70,54,29.68,29.32,8,2,8,0.00
2013-10-29,47,40,40,32,30,26,72,66,45,29.71,29.62,7,2,7,0.00
2013-10-31,62,60,58,62,60,58,98,98,98,29.62,28.47,11,5,11,1.15
2013-11-1,61,52,47,60,44,36,98,76,53,28.94,28.38,18,5,18,0.04
2013-11-2,49,44,36,45,40,31,97,87,72,29.35,28.91,14,3,14,0.16
2013-11-3,37,35,30,34,31,25,94,87,79,29.71,29.35,5,0,5,0.00
2013-11-4,47,43,30,33,29,24,87,59,42,29.77,29.56,16,5,16,0.00
2013-11-5,56,48,37,47,41,32,91,76,64,29.62,29.44,6,1,6,0.00
2013-11-6,57,53,44,56,48,38,98,84,60,29.44,29.06,15,4,15,0.16
2013-11-7,46,41,35,39,30,24,91,65,46,29.38,29.24,6,2,6,0.00
2013-11-8,48,36,30,29,25,20,80,64,44,29.53,29.35,7,1,7,0.00
2013-11-9,58,47,33,38,33,26,83,59,45,29.44,29.06,13,4,13,0.00
2013-11-10,52,43,32,34,28,22,78,56,46,29.50,29.15,8,2,8,0.00
2013-11-11,43,36,28,39,30,22,98,79,64,29.53,29.26,13,4,13,0.08
2013-11-12,36,29,24,24,18,10,84,64,51,29.80,29.53,12,4,12,0.00
2013-11-13,45,31,20,24,16,9,79,56,30,29.77,29.38,15,3,15,0.00
2013-11-14,33,32,30,15,14,13,49,47,47,29.38,29.38,7,3,7,0.00
2013-11-15,52,43,36,28,24,21,56,46,38,29.38,29.26,8,1,8,0.00
2013-11-16,56,44,29,51,37,21,84,76,56,29.38,29.09,13,2,13,0.00
2013-11-17,62,57,48,60,55,40,98,94,74,29.09,28.50,19,5,19,0.58
2013-11-18,49,42,36,41,28,20,75,58,52,29.35,28.67,15,4,15,0.00
2013-11-19,44,35,25,24,19,15,73,53,44,29.68,29.35,9,2,9,0.00
2013-11-20,46,34,24,32,24,17,84,69,44,29.71,29.53,15,3,15,0.00
2013-11-21,50,44,35,44,36,28,98,77,56,29.56,29.44,8,2,8,0.20
2013-11-22,46,40,26,46,39,25,98,97,87,29.59,29.38,13,2,13,0.08
2013-11-23,32,24,16,25,15,3,98,69,44,29.74,29.47,12,4,12,0.00
2013-11-24,26,19,14,10,6,3,69,57,45,29.80,29.65,8,2,8,0.00
2013-11-25,33,26,19,22,12,7,71,56,44,29.65,29.32,17,4,17,0.04
2013-11-26,35,32,30,27,25,22,81,73,67,29.35,29.18,10,2,10,0.00
2013-11-27,32,24,18,26,11,4,80,57,47,29.41,29.15,20,5,20,0.00
2013-11-28,29,22,16,20,12,4,75,65,55,29.65,29.41,6,1,6,0.00
2013-11-29,36,23,11,22,15,6,80,70,50,29.88,29.65,6,1,6,0.00
2013-11-30,47,34,22,27,23,17,80,64,45,29.80,29.35,8,2,8,0.00
2013-12-1,38,34,31,32,27,23,85,75,65,29.35,29.24,6,1,6,0.00
2013-12-2,40,33,24,29,23,15,84,68,47,29.24,29.15,8,1,8,0.00
2013-12-3,37,32,23,36,28,17,98,85,71,29.18,29.12,7,2,7,0.00
2013-12-4,56,44,35,54,42,35,98,94,84,29.18,28.91,9,3,9,0.00
2013-12-5,58,45,32,56,34,17,94,66,50,29.38,28.88,12,3,12,0.00
2013-12-6,32,27,20,17,12,6,57,54,51,29.62,29.35,5,2,5,0.00
2013-12-7,29,20,12,11,5,-1,59,51,43,29.83,29.62,6,1,6,0.00
2013-12-8,28,20,11,26,9,-2,91,61,51,29.83,29.26,13,3,13,0.00
2013-12-9,31,28,21,30,20,8,97,74,55,29.32,29.09,13,4,13,0.00
2013-12-10,24,20,13,12,5,0,65,53,42,29.41,29.18,10,4,10,0.00
2013-12-11,24,17,7,11,4,-6,64,57,53,29.65,29.41,10,2,10,0.00
2013-12-12,23,14,4,7,0,-8,60,53,44,29.65,29.38,9,3,9,0.00
2013-12-13,29,24,20,17,13,6,70,61,54,29.56,29.35,7,2,7,0.00
2013-12-14,23,20,17,19,13,6,88,77,53,29.56,29.03,8,4,8,0.00
2013-12-15,22,14,9,18,4,-4,85,65,56,29.24,29.03,5,2,5,0.00
2013-12-16,26,14,8,10,1,-5,74,56,42,29.38,29.24,7,2,7,0.00
2013-12-17,30,22,13,23,16,7,84,76,66,29.24,29.09,7,2,7,0.00
2013-12-18,36,26,19,25,18,10,89,72,55,29.32,29.15,10,2,10,0.00
2013-12-19,43,33,23,30,23,12,88,67,56,29.24,29.09,10,2,10,0.12
2013-12-20,36,34,33,35,34,30,98,97,89,29.18,29.00,5,2,5,0.35
2013-12-21,35,34,33,34,33,32,98,98,98,29.12,28.94,8,3,8,0.56
2013-12-22,38,34,33,37,34,32,98,98,98,29.20,28.82,7,2,7,0.24
2013-12-23,33,29,23,32,26,16,98,90,74,29.53,29.20,7,2,7,0.00
2013-12-24,23,14,6,17,6,-5,83,67,54,29.77,29.50,8,2,8,0.00
2013-12-25,25,19,4,22,12,-7,87,75,61,29.74,29.35,12,3,12,0.00
2013-12-26,32,26,23,25,20,12,93,78,52,29.50,29.26,8,2,8,0.00
2013-12-27,41,32,25,34,27,20,90,82,68,29.56,29.29,12,2,12,0.04
2013-12-28,50,39,28,34,31,25,93,74,52,29.35,29.15,12,3,12,0.04
2013-12-29,46,34,21,31,26,11,87,72,53,29.24,28.94,13,3,13,0.00
2013-12-30,23,19,15,12,5,2,68,54,46,29.50,29.24,10,2,10,0.00
2013-12-31,23,18,13,13,7,3,75,60,47,29.56,29.26,8,2,8,0.00
2014-1-1,17,14,11,10,4,-1,79,63,50,29.62,29.47,10,4,10,0.00
2014-1-2,16,12,3,10,5,-5,79,72,59,29.47,29.32,24,7,24,0.00